createdAt,value
2023-01-29T00:00:13.641Z,46.02
2023-01-29T00:02:42.305Z,45.63
2023-01-29T00:05:26.438Z,45.53
2023-01-29T00:07:56.798Z,45.24
2023-01-29T00:10:26.252Z,45.12
2023-01-29T00:12:55.131Z,45.46
2023-01-29T00:15:23.781Z,45.42
2023-01-29T00:17:52.341Z,45.08
2023-01-29T00:20:20.734Z,45.09
2023-01-29T00:22:49.503Z,44.93
2023-01-29T00:25:17.899Z,44.94
2023-01-29T00:27:46.424Z,45.03
2023-01-29T00:30:19.230Z,45.73
2023-01-29T00:32:48.141Z,45.83
2023-01-29T00:35:16.671Z,45.77
2023-01-29T00:37:45.212Z,45.46
2023-01-29T00:40:13.781Z,45.08
2023-01-29T00:43:03.029Z,45.15
2023-01-29T00:45:31.498Z,44.87
2023-01-29T00:47:59.985Z,44.90
2023-01-29T00:50:28.565Z,44.81
2023-01-29T00:52:57.126Z,44.75
2023-01-29T00:55:25.552Z,44.84
2023-01-29T00:57:54.042Z,45.28
2023-01-29T01:00:22.794Z,45.64
2023-01-29T01:03:06.098Z,45.46
2023-01-29T01:05:36.691Z,46.45
2023-01-29T01:08:25.381Z,46.42
2023-01-29T01:11:02.682Z,46.07
2023-01-29T01:13:34.522Z,46.74
2023-01-29T01:16:09.994Z,47.09
2023-01-29T01:18:38.876Z,47.13
2023-01-29T01:21:07.470Z,46.60
2023-01-29T01:23:35.939Z,46.59
2023-01-29T01:26:08.956Z,47.02
2023-01-29T01:28:37.498Z,47.18
2023-01-29T01:31:11.226Z,47.00
2023-01-29T01:33:40.337Z,47.45
2023-01-29T01:36:13.967Z,47.45
2023-01-29T01:38:45.189Z,46.88
2023-01-29T01:41:19.091Z,46.90
2023-01-29T01:43:55.596Z,46.23
2023-01-29T01:46:25.327Z,46.01
2023-01-29T01:48:59.044Z,46.72
2023-01-29T01:51:30.676Z,47.11
2023-01-29T01:54:14.098Z,47.21
2023-01-29T01:56:48.722Z,46.85
2023-01-29T01:59:18.963Z,46.70
2023-01-29T02:01:50.679Z,46.67
2023-01-29T02:04:41.825Z,46.76
2023-01-29T02:07:32.695Z,47.08
2023-01-29T02:10:20.408Z,47.32
2023-01-29T02:12:48.951Z,47.51
2023-01-29T02:15:17.407Z,47.94
2023-01-29T02:17:48.334Z,48.01
2023-01-29T02:20:27.736Z,47.62
2023-01-29T02:23:27.269Z,47.70
2023-01-29T02:26:12.477Z,47.37
2023-01-29T02:28:49.101Z,47.61
2023-01-29T02:31:39.167Z,47.98
2023-01-29T02:34:28.699Z,47.50
2023-01-29T02:37:09.374Z,48.35
2023-01-29T02:40:01.694Z,47.52
2023-01-29T02:42:53.972Z,47.30
2023-01-29T02:45:38.899Z,47.56
2023-01-29T02:48:11.671Z,47.63
2023-01-29T02:50:58.914Z,47.68
2023-01-29T02:53:35.844Z,47.67
2023-01-29T02:56:15.889Z,47.64
2023-01-29T02:58:50.961Z,47.76
2023-01-29T03:01:30.342Z,48.40
2023-01-29T03:04:04.066Z,47.97
2023-01-29T03:06:38.373Z,47.45
2023-01-29T03:09:19.718Z,47.18
2023-01-29T03:11:55.061Z,48.11
2023-01-29T03:15:00.458Z,48.26
2023-01-29T03:17:38.014Z,47.44
2023-01-29T03:20:13.477Z,47.47
2023-01-29T03:22:48.529Z,46.99
2023-01-29T03:25:39.066Z,47.00
2023-01-29T03:28:30.794Z,47.37
2023-01-29T03:31:23.276Z,47.44
2023-01-29T03:33:54.669Z,46.79
2023-01-29T03:36:37.893Z,46.79
2023-01-29T03:39:09.462Z,47.56
2023-01-29T03:41:50.359Z,47.39
2023-01-29T03:44:40.297Z,47.26
2023-01-29T03:47:32.743Z,47.24
2023-01-29T03:50:07.308Z,46.97
2023-01-29T03:52:44.922Z,47.16
2023-01-29T03:55:18.605Z,47.49
2023-01-29T03:58:04.040Z,46.77
2023-01-29T04:00:41.470Z,47.38
2023-01-29T04:03:20.474Z,46.96
2023-01-29T04:06:05.516Z,46.61
2023-01-29T04:08:39.150Z,46.91
2023-01-29T04:11:14.833Z,46.84
2023-01-29T04:13:43.780Z,46.96
2023-01-29T04:16:20.589Z,47.35
2023-01-29T04:18:49.712Z,47.59
2023-01-29T04:21:19.152Z,46.94
2023-01-29T04:23:47.547Z,46.95
2023-01-29T04:26:32.554Z,47.37
2023-01-29T04:29:26.165Z,47.32
2023-01-29T04:32:01.129Z,46.89
2023-01-29T04:34:40.869Z,47.04
2023-01-29T04:37:17.472Z,46.89
2023-01-29T04:40:08.674Z,46.50
2023-01-29T04:42:47.187Z,46.85
2023-01-29T04:45:28.599Z,46.50
2023-01-29T04:48:25.951Z,46.65
2023-01-29T04:50:54.380Z,46.54
2023-01-29T04:53:35.901Z,46.54
2023-01-29T04:56:34.334Z,46.48
2023-01-29T04:59:09.342Z,47.04
2023-01-29T05:01:39.085Z,47.33
2023-01-29T05:04:14.209Z,46.83
2023-01-29T05:06:44.899Z,46.82
2023-01-29T05:09:16.128Z,46.80
2023-01-29T05:11:47.393Z,46.86
2023-01-29T05:14:18.465Z,47.24
2023-01-29T05:16:53.255Z,47.11
2023-01-29T05:19:21.855Z,46.90
2023-01-29T05:21:50.525Z,47.02
2023-01-29T05:24:20.493Z,46.60
2023-01-29T05:27:09.926Z,46.48
2023-01-29T05:29:41.619Z,46.35
2023-01-29T05:32:09.987Z,46.31
2023-01-29T05:34:38.389Z,46.64
2023-01-29T05:37:07.252Z,46.55
2023-01-29T05:39:35.650Z,46.59
2023-01-29T05:42:04.575Z,46.54
2023-01-29T05:44:32.997Z,46.17
2023-01-29T05:47:02.796Z,46.57
2023-01-29T05:49:31.227Z,46.34
2023-01-29T05:51:59.648Z,46.67
2023-01-29T05:54:28.231Z,46.45
2023-01-29T05:56:56.680Z,46.31
2023-01-29T05:59:25.100Z,46.41
2023-01-29T06:01:53.619Z,46.15
2023-01-29T06:04:22.028Z,46.17
2023-01-29T06:06:50.584Z,46.20
2023-01-29T06:09:19.023Z,46.55
2023-01-29T06:11:47.489Z,46.69
2023-01-29T06:14:15.925Z,46.41
2023-01-29T06:16:44.320Z,46.86
2023-01-29T06:19:12.682Z,46.77
2023-01-29T06:21:41.102Z,46.77
2023-01-29T06:24:09.543Z,47.09
2023-01-29T06:26:37.970Z,46.76
2023-01-29T06:29:06.333Z,46.28
2023-01-29T06:31:39.304Z,46.41
2023-01-29T06:34:08.519Z,46.51
2023-01-29T06:36:37.057Z,46.35
2023-01-29T06:39:05.482Z,46.31
2023-01-29T06:41:34.605Z,46.74
2023-01-29T06:44:03.040Z,46.65
2023-01-29T06:46:31.524Z,46.35
2023-01-29T06:49:00.766Z,46.39
2023-01-29T06:51:29.221Z,46.23
2023-01-29T06:53:57.987Z,46.16
2023-01-29T06:56:26.424Z,46.07
2023-01-29T06:58:54.974Z,46.51
2023-01-29T07:01:35.176Z,46.49
2023-01-29T07:04:04.877Z,46.37
2023-01-29T07:06:33.481Z,46.20
2023-01-29T07:09:03.524Z,46.15
2023-01-29T07:11:34.052Z,46.39
2023-01-29T07:14:02.486Z,46.59
2023-01-29T07:16:31.191Z,46.39
2023-01-29T07:18:59.599Z,46.16
2023-01-29T07:21:28.152Z,46.56
2023-01-29T07:23:57.161Z,46.57
2023-01-29T07:26:25.713Z,46.59
2023-01-29T07:28:54.169Z,46.63
2023-01-29T07:31:22.937Z,46.42
2023-01-29T07:33:51.450Z,46.22
2023-01-29T07:36:19.917Z,46.09
2023-01-29T07:38:51.562Z,46.03
2023-01-29T07:41:20.101Z,45.62
2023-01-29T07:43:48.752Z,45.58
2023-01-29T07:46:17.223Z,45.99
2023-01-29T07:48:45.721Z,46.09
2023-01-29T07:51:14.134Z,46.11
2023-01-29T07:53:44.375Z,45.87
2023-01-29T07:56:12.815Z,45.80
2023-01-29T07:58:41.242Z,45.83
2023-01-29T08:01:09.711Z,45.81
2023-01-29T08:03:38.195Z,45.95
2023-01-29T08:06:06.849Z,45.85
2023-01-29T08:08:35.391Z,46.22
2023-01-29T08:11:05.530Z,46.61
2023-01-29T08:13:33.913Z,46.21
2023-01-29T08:16:03.557Z,46.02
2023-01-29T08:18:31.999Z,45.97
2023-01-29T08:21:01.381Z,46.51
2023-01-29T08:23:29.801Z,46.62
2023-01-29T08:25:58.350Z,46.30
2023-01-29T08:28:26.943Z,46.09
2023-01-29T08:30:55.471Z,46.13
2023-01-29T08:33:37.950Z,46.21
2023-01-29T08:36:08.676Z,46.22
2023-01-29T08:38:37.187Z,46.13
2023-01-29T08:41:06.305Z,45.99
2023-01-29T08:43:36.999Z,46.11
2023-01-29T08:46:06.644Z,46.11
2023-01-29T08:48:36.143Z,45.88
2023-01-29T08:51:05.292Z,45.75
2023-01-29T08:53:33.814Z,46.23
2023-01-29T08:56:02.394Z,46.16
2023-01-29T08:58:30.858Z,46.56
2023-01-29T09:01:06.902Z,46.52
2023-01-29T09:03:35.715Z,46.15
2023-01-29T09:06:04.332Z,46.58
2023-01-29T09:08:32.844Z,46.38
2023-01-29T09:11:01.268Z,46.37
2023-01-29T09:13:29.793Z,46.17
2023-01-29T09:16:03.526Z,46.09
2023-01-29T09:18:32.904Z,46.40
2023-01-29T09:21:02.620Z,46.08
2023-01-29T09:23:32.045Z,46.14
2023-01-29T09:26:00.620Z,46.10
2023-01-29T09:28:29.113Z,46.47
2023-01-29T09:31:01.454Z,46.28
2023-01-29T09:33:31.041Z,46.14
2023-01-29T09:35:59.535Z,46.16
2023-01-29T09:38:28.250Z,46.06
2023-01-29T09:41:22.857Z,45.71
2023-01-29T09:44:02.486Z,45.75
2023-01-29T09:46:43.384Z,46.07
2023-01-29T09:49:37.752Z,45.93
2023-01-29T09:52:14.978Z,45.70
2023-01-29T09:55:05.218Z,45.54
2023-01-29T09:57:44.277Z,45.62
2023-01-29T10:00:25.072Z,45.92
2023-01-29T10:03:15.497Z,45.96
2023-01-29T10:06:21.190Z,45.41
2023-01-29T10:09:37.358Z,45.51
2023-01-29T10:12:36.401Z,45.20
2023-01-29T10:15:32.485Z,45.33
2023-01-29T10:18:39.798Z,45.28
2023-01-29T10:21:30.079Z,45.46
2023-01-29T10:24:17.272Z,45.13
2023-01-29T10:26:45.848Z,45.48
2023-01-29T10:29:19.499Z,45.35
2023-01-29T10:31:53.853Z,45.25
2023-01-29T10:34:42.472Z,45.26
2023-01-29T10:37:31.254Z,45.33
2023-01-29T10:40:00.200Z,45.20
2023-01-29T10:42:31.506Z,45.06
2023-01-29T10:45:16.917Z,45.13
2023-01-29T10:48:10.338Z,44.90
2023-01-29T10:50:49.068Z,44.92
2023-01-29T10:53:26.565Z,45.13
2023-01-29T10:56:23.164Z,45.04
2023-01-29T10:58:57.386Z,45.14
2023-01-29T11:01:26.761Z,44.97
2023-01-29T11:03:59.375Z,45.00
2023-01-29T11:06:31.142Z,45.13
2023-01-29T11:09:09.729Z,44.58
2023-01-29T11:11:47.465Z,45.25
2023-01-29T11:14:26.896Z,44.79
2023-01-29T11:16:56.208Z,44.84
2023-01-29T11:19:38.301Z,44.43
2023-01-29T11:22:16.919Z,44.63
2023-01-29T11:24:45.818Z,44.37
2023-01-29T11:27:26.479Z,44.48
2023-01-29T11:29:55.782Z,44.67
2023-01-29T11:32:33.631Z,45.17
2023-01-29T11:35:05.015Z,44.78
2023-01-29T11:37:39.197Z,44.47
2023-01-29T11:40:32.601Z,44.58
2023-01-29T11:43:33.972Z,44.30
2023-01-29T11:46:05.740Z,44.75
2023-01-29T11:48:40.806Z,44.67
2023-01-29T11:51:12.523Z,44.62
2023-01-29T11:53:44.929Z,44.61
2023-01-29T11:56:19.302Z,44.52
2023-01-29T11:58:49.788Z,44.21
2023-01-29T12:01:27.807Z,44.45
2023-01-29T12:03:56.326Z,44.40
2023-01-29T12:06:33.169Z,44.46
2023-01-29T12:09:08.970Z,43.98
2023-01-29T12:11:37.733Z,44.32
2023-01-29T12:14:26.517Z,44.00
2023-01-29T12:17:19.935Z,44.41
2023-01-29T12:19:58.950Z,44.10
2023-01-29T12:22:42.813Z,44.22
2023-01-29T12:25:44.811Z,44.18
2023-01-29T12:28:35.608Z,44.30
2023-01-29T12:31:38.432Z,43.99
2023-01-29T12:34:22.679Z,44.03
2023-01-29T12:37:34.161Z,44.30
2023-01-29T12:40:02.979Z,44.29
2023-01-29T12:42:32.217Z,44.50
2023-01-29T12:45:09.007Z,44.17
2023-01-29T12:47:50.120Z,43.97
2023-01-29T12:50:27.913Z,43.69
2023-01-29T12:53:11.147Z,43.89
2023-01-29T12:55:47.897Z,44.10
2023-01-29T12:58:21.980Z,43.94
2023-01-29T13:00:54.408Z,43.69
2023-01-29T13:03:33.294Z,43.77
2023-01-29T13:06:15.869Z,43.41
2023-01-29T13:08:54.733Z,44.54
2023-01-29T13:11:34.139Z,44.17
2023-01-29T13:14:20.528Z,44.28
2023-01-29T13:16:54.503Z,44.09
2023-01-29T13:19:29.459Z,43.62
2023-01-29T13:22:02.233Z,43.82
2023-01-29T13:24:40.620Z,43.98
2023-01-29T13:27:21.727Z,44.92
2023-01-29T13:29:50.436Z,44.06
2023-01-29T13:32:26.136Z,45.64
2023-01-29T13:34:58.933Z,44.49
2023-01-29T13:37:36.583Z,43.85
2023-01-29T13:40:07.678Z,43.67
2023-01-29T13:42:47.149Z,43.59
2023-01-29T13:45:25.133Z,43.48
2023-01-29T13:47:54.237Z,44.07
2023-01-29T13:50:39.887Z,43.65
2023-01-29T13:53:18.175Z,43.48
2023-01-29T13:55:46.788Z,43.44
2023-01-29T13:58:43.580Z,43.73
2023-01-29T14:01:11.983Z,43.72
2023-01-29T14:04:02.248Z,43.65
2023-01-29T14:06:38.812Z,43.75
2023-01-29T14:09:39.295Z,43.84
2023-01-29T14:12:22.986Z,44.09
2023-01-29T14:15:04.196Z,43.66
2023-01-29T14:17:32.886Z,44.11
2023-01-29T14:20:16.540Z,43.74
2023-01-29T14:22:55.527Z,43.46
2023-01-29T14:25:30.048Z,43.84
2023-01-29T14:28:01.358Z,43.54
2023-01-29T14:30:35.014Z,43.52
2023-01-29T14:33:05.572Z,43.64
2023-01-29T14:35:34.632Z,43.61
2023-01-29T14:38:06.469Z,43.38
2023-01-29T14:40:37.260Z,43.33
2023-01-29T14:43:19.998Z,43.49
2023-01-29T14:45:49.491Z,43.56
2023-01-29T14:48:48.732Z,43.38
2023-01-29T14:51:18.184Z,43.58
2023-01-29T14:54:01.247Z,43.65
2023-01-29T14:56:36.498Z,43.61
2023-01-29T14:59:16.437Z,43.54
2023-01-29T15:01:57.860Z,43.68
2023-01-29T15:04:29.864Z,43.37
2023-01-29T15:07:24.146Z,43.51
2023-01-29T15:10:21.583Z,43.77
2023-01-29T15:13:00.523Z,43.50
2023-01-29T15:15:31.928Z,43.47
2023-01-29T15:18:05.496Z,43.37
2023-01-29T15:20:39.990Z,43.07
2023-01-29T15:23:28.339Z,43.23
2023-01-29T15:26:18.154Z,42.96
2023-01-29T15:29:03.105Z,43.76
2023-01-29T15:31:35.112Z,43.96
2023-01-29T15:34:07.149Z,43.42
2023-01-29T15:36:37.038Z,43.25
2023-01-29T15:39:17.107Z,43.25
2023-01-29T15:41:46.394Z,43.60
2023-01-29T15:44:18.658Z,43.60
2023-01-29T15:46:53.321Z,43.49
2023-01-29T15:49:35.004Z,43.71
2023-01-29T15:52:15.457Z,43.76
2023-01-29T15:54:44.549Z,43.75
2023-01-29T15:57:30.697Z,43.48
2023-01-29T15:59:59.088Z,43.89
2023-01-29T16:02:40.061Z,44.64
2023-01-29T16:05:20.545Z,44.33
2023-01-29T16:07:51.277Z,43.97
2023-01-29T16:10:26.419Z,43.82
2023-01-29T16:12:55.754Z,43.61
2023-01-29T16:16:10.857Z,43.84
2023-01-29T16:18:54.215Z,44.19
2023-01-29T16:21:41.396Z,44.14
2023-01-29T16:24:13.916Z,44.66
2023-01-29T16:26:45.286Z,44.04
2023-01-29T16:29:28.854Z,44.15
2023-01-29T16:32:01.833Z,44.43
2023-01-29T16:34:41.641Z,44.01
2023-01-29T16:37:21.897Z,43.51
2023-01-29T16:39:52.814Z,43.70
2023-01-29T16:42:23.027Z,44.14
2023-01-29T16:45:01.846Z,43.87
2023-01-29T16:47:35.983Z,43.69
2023-01-29T16:50:23.452Z,43.89
2023-01-29T16:53:02.362Z,43.66
2023-01-29T16:55:39.118Z,43.70
2023-01-29T16:58:20.137Z,43.80
2023-01-29T17:00:55.039Z,43.32
2023-01-29T17:03:26.701Z,43.79
2023-01-29T17:05:55.223Z,44.00
2023-01-29T17:08:34.314Z,43.68
2023-01-29T17:11:03.127Z,43.92
2023-01-29T17:13:42.708Z,44.31
2023-01-29T17:16:26.720Z,45.19
2023-01-29T17:18:55.646Z,44.95
2023-01-29T17:21:24.515Z,44.33
2023-01-29T17:23:53.650Z,44.58
2023-01-29T17:26:22.989Z,44.02
2023-01-29T17:28:51.817Z,44.00
2023-01-29T17:31:20.403Z,44.41
2023-01-29T17:33:49.005Z,44.49
2023-01-29T17:36:18.089Z,44.33
2023-01-29T17:38:47.060Z,44.09
2023-01-29T17:41:25.937Z,43.98
2023-01-29T17:43:54.402Z,44.40
2023-01-29T17:46:22.952Z,44.59
2023-01-29T17:48:52.387Z,44.30
2023-01-29T17:51:22.443Z,44.33
2023-01-29T17:53:52.197Z,43.81
2023-01-29T17:56:29.434Z,43.94
2023-01-29T17:58:58.009Z,44.41
2023-01-29T18:01:26.519Z,44.00
2023-01-29T18:03:54.964Z,44.25
2023-01-29T18:06:28.868Z,44.07
2023-01-29T18:08:57.602Z,44.48
2023-01-29T18:11:26.462Z,43.86
2023-01-29T18:13:56.147Z,44.08
2023-01-29T18:16:25.650Z,44.51
2023-01-29T18:18:54.288Z,44.63
2023-01-29T18:21:22.853Z,45.84
2023-01-29T18:23:51.478Z,45.73
2023-01-29T18:26:19.905Z,45.43
2023-01-29T18:28:49.795Z,46.36
2023-01-29T18:31:18.522Z,46.38
2023-01-29T18:33:47.453Z,47.48
2023-01-29T18:36:15.939Z,47.17
2023-01-29T18:38:44.402Z,45.95
2023-01-29T18:41:12.915Z,46.75
2023-01-29T18:43:41.936Z,46.23
2023-01-29T18:46:10.928Z,47.33
2023-01-29T18:48:41.675Z,46.67
2023-01-29T18:51:10.950Z,46.41
2023-01-29T18:53:39.401Z,46.87
2023-01-29T18:56:09.274Z,46.50
2023-01-29T18:58:37.903Z,46.65
2023-01-29T19:01:10.105Z,46.52
2023-01-29T19:03:40.652Z,47.77
2023-01-29T19:06:11.258Z,48.83
2023-01-29T19:08:40.978Z,47.99
2023-01-29T19:11:09.699Z,47.04
2023-01-29T19:13:38.376Z,47.01
2023-01-29T19:16:09.226Z,46.65
2023-01-29T19:18:38.734Z,47.21
2023-01-29T19:21:12.980Z,46.93
2023-01-29T19:23:43.052Z,47.94
2023-01-29T19:26:11.972Z,48.98
2023-01-29T19:28:41.331Z,47.78
2023-01-29T19:31:09.833Z,48.47
2023-01-29T19:33:39.311Z,47.51
2023-01-29T19:36:08.109Z,47.82
2023-01-29T19:38:38.836Z,48.40
2023-01-29T19:41:07.628Z,48.55
2023-01-29T19:43:38.307Z,47.23
2023-01-29T19:46:07.422Z,47.42
2023-01-29T19:48:36.505Z,47.73
2023-01-29T19:51:10.875Z,47.20
2023-01-29T19:53:43.926Z,48.48
2023-01-29T19:56:18.118Z,47.46
2023-01-29T19:58:47.261Z,47.48
2023-01-29T20:01:18.403Z,47.94
2023-01-29T20:03:50.153Z,47.73
2023-01-29T20:06:22.475Z,47.26
2023-01-29T20:08:50.888Z,47.07
2023-01-29T20:11:21.820Z,48.01
2023-01-29T20:13:52.062Z,49.19
2023-01-29T20:16:21.411Z,48.47
2023-01-29T20:18:50.469Z,48.84
2023-01-29T20:21:21.802Z,48.18
2023-01-29T20:23:51.115Z,49.80
2023-01-29T20:26:21.370Z,49.18
2023-01-29T20:28:50.029Z,49.22
2023-01-29T20:31:18.530Z,49.35
2023-01-29T20:33:46.938Z,48.53
2023-01-29T20:36:15.381Z,48.75
2023-01-29T20:38:43.875Z,48.95
2023-01-29T20:41:17.391Z,49.09
2023-01-29T20:43:47.070Z,48.65
2023-01-29T20:46:15.647Z,48.92
2023-01-29T20:48:44.105Z,48.58
2023-01-29T20:51:17.611Z,48.12
2023-01-29T20:53:47.865Z,48.72
2023-01-29T20:56:16.832Z,49.24
2023-01-29T20:58:46.786Z,49.37
2023-01-29T21:01:18.393Z,50.42
2023-01-29T21:03:48.567Z,51.25
2023-01-29T21:06:17.018Z,49.79
2023-01-29T21:08:45.436Z,50.80
2023-01-29T21:11:13.896Z,49.67
2023-01-29T21:13:43.913Z,49.95
2023-01-29T21:16:13.100Z,49.35
2023-01-29T21:18:41.530Z,50.00
2023-01-29T21:21:10.791Z,50.94
2023-01-29T21:23:39.193Z,51.53
2023-01-29T21:26:08.060Z,50.56
2023-01-29T21:28:36.520Z,50.41
2023-01-29T21:31:07.243Z,52.16
2023-01-29T21:33:37.005Z,49.58
2023-01-29T21:36:06.054Z,49.89
2023-01-29T21:38:34.475Z,49.90
2023-01-29T21:41:05.850Z,49.89
2023-01-29T21:43:34.550Z,49.35
2023-01-29T21:46:05.935Z,49.12
2023-01-29T21:48:34.447Z,49.84
2023-01-29T21:51:02.848Z,49.19
2023-01-29T21:53:31.336Z,50.38
2023-01-29T21:56:01.820Z,50.39
2023-01-29T21:58:30.730Z,49.93
2023-01-29T22:01:36.127Z,49.64
2023-01-29T22:03:47.840Z,49.08
2023-01-29T22:06:16.394Z,49.49
2023-01-29T22:08:44.851Z,50.64
2023-01-29T22:11:13.756Z,51.12
2023-01-29T22:13:42.643Z,50.84
2023-01-29T22:16:11.235Z,50.96
2023-01-29T22:18:39.759Z,51.20
2023-01-29T22:21:08.252Z,50.08
2023-01-29T22:23:36.707Z,50.91
2023-01-29T22:26:06.568Z,51.45
2023-01-29T22:28:35.161Z,51.02
2023-01-29T22:31:04.724Z,52.09
2023-01-29T22:33:33.936Z,50.66
2023-01-29T22:36:02.768Z,51.68
2023-01-29T22:38:31.231Z,51.82
2023-01-29T22:41:00.837Z,51.55
2023-01-29T22:43:29.456Z,51.35
2023-01-29T22:45:57.920Z,52.14
2023-01-29T22:48:26.914Z,51.22
2023-01-29T22:51:10.150Z,50.82
2023-01-29T22:53:53.422Z,51.25
2023-01-29T22:56:28.194Z,50.78
2023-01-29T22:58:59.367Z,50.54
2023-01-29T23:01:30.700Z,50.67
2023-01-29T23:03:59.216Z,52.18
2023-01-29T23:06:27.664Z,51.52
2023-01-29T23:08:56.107Z,53.85
2023-01-29T23:11:24.558Z,53.11
2023-01-29T23:13:54.526Z,52.53
2023-01-29T23:16:27.726Z,52.88
2023-01-29T23:18:56.995Z,51.70
2023-01-29T23:21:26.221Z,52.13
2023-01-29T23:23:58.235Z,52.67
2023-01-29T23:26:46.477Z,53.47
2023-01-29T23:29:15.069Z,53.21
2023-01-29T23:31:43.652Z,54.15
2023-01-29T23:34:12.263Z,52.62
2023-01-29T23:36:40.882Z,53.56
2023-01-29T23:39:09.667Z,53.09
2023-01-29T23:41:38.218Z,52.22
2023-01-29T23:44:06.949Z,52.05
2023-01-29T23:46:35.437Z,52.62
2023-01-29T23:49:03.929Z,52.73
2023-01-29T23:51:32.758Z,54.38
2023-01-29T23:54:01.145Z,54.25
2023-01-29T23:56:29.635Z,54.03
2023-01-29T23:58:58.562Z,53.30
